createdAt,value
2023-09-16T00:01:59.470Z,7.72
2023-09-16T00:04:26.017Z,7.71
2023-09-16T00:06:52.732Z,7.89
2023-09-16T00:09:19.214Z,7.89
2023-09-16T00:11:45.708Z,7.50
2023-09-16T00:14:12.195Z,7.50
2023-09-16T00:16:38.832Z,7.45
2023-09-16T00:19:05.368Z,7.39
2023-09-16T00:21:31.928Z,7.20
2023-09-16T00:23:58.473Z,7.34
2023-09-16T00:26:24.957Z,7.35
2023-09-16T00:28:51.852Z,6.95
2023-09-16T00:31:18.454Z,7.02
2023-09-16T00:33:45.021Z,7.14
2023-09-16T00:36:11.480Z,6.35
2023-09-16T00:38:37.913Z,6.87
2023-09-16T00:41:04.348Z,6.92
2023-09-16T00:43:30.810Z,6.94
2023-09-16T00:45:57.292Z,7.20
2023-09-16T00:48:23.751Z,6.92
2023-09-16T00:50:50.210Z,6.76
2023-09-16T00:53:16.699Z,6.92
2023-09-16T00:55:43.215Z,6.64
2023-09-16T00:58:09.646Z,6.82
2023-09-16T01:00:36.142Z,7.42
2023-09-16T01:03:02.771Z,8.70
2023-09-16T01:05:29.476Z,8.95
2023-09-16T01:07:56.053Z,7.08
2023-09-16T01:10:22.535Z,7.15
2023-09-16T01:12:49.183Z,7.42
2023-09-16T01:15:15.653Z,7.08
2023-09-16T01:17:42.323Z,6.75
2023-09-16T01:20:08.811Z,6.70
2023-09-16T01:22:35.340Z,6.79
2023-09-16T01:25:01.878Z,6.53
2023-09-16T01:27:28.424Z,6.49
2023-09-16T01:29:54.901Z,6.22
2023-09-16T01:32:21.453Z,6.78
2023-09-16T01:34:47.915Z,6.96
2023-09-16T01:37:14.386Z,6.58
2023-09-16T01:39:40.919Z,6.76
2023-09-16T01:42:09.431Z,6.89
2023-09-16T01:44:35.870Z,6.71
2023-09-16T01:47:02.328Z,6.51
2023-09-16T01:49:28.994Z,6.80
2023-09-16T01:51:55.556Z,6.50
2023-09-16T01:54:22.111Z,6.71
2023-09-16T01:56:48.646Z,6.55
2023-09-16T01:59:15.109Z,6.46
2023-09-16T02:01:41.708Z,5.57
2023-09-16T02:04:08.379Z,5.54
2023-09-16T02:06:34.963Z,5.53
2023-09-16T02:09:01.424Z,5.02
2023-09-16T02:11:27.884Z,5.19
2023-09-16T02:13:54.559Z,5.38
2023-09-16T02:16:21.139Z,5.01
2023-09-16T02:18:48.046Z,5.09
2023-09-16T02:21:14.879Z,5.33
2023-09-16T02:23:41.377Z,5.34
2023-09-16T02:26:07.865Z,5.43
2023-09-16T02:28:34.311Z,5.30
2023-09-16T02:31:00.866Z,5.45
2023-09-16T02:33:27.398Z,5.15
2023-09-16T02:35:53.852Z,5.26
2023-09-16T02:38:20.325Z,5.24
2023-09-16T02:40:46.696Z,5.38
2023-09-16T02:43:13.149Z,5.07
2023-09-16T02:45:39.689Z,5.00
2023-09-16T02:48:06.349Z,5.25
2023-09-16T02:50:32.872Z,5.52
2023-09-16T02:53:09.576Z,5.42
2023-09-16T02:55:36.014Z,5.42
2023-09-16T02:58:02.580Z,5.63
2023-09-16T03:00:29.121Z,5.54
2023-09-16T03:02:55.691Z,5.67
2023-09-16T03:05:22.213Z,5.66
2023-09-16T03:07:48.664Z,5.62
2023-09-16T03:10:15.106Z,5.58
2023-09-16T03:12:41.674Z,5.57
2023-09-16T03:15:08.140Z,5.75
2023-09-16T03:17:34.630Z,5.61
2023-09-16T03:20:01.088Z,5.85
2023-09-16T03:22:27.506Z,5.81
2023-09-16T03:24:54.035Z,5.80
2023-09-16T03:27:20.546Z,5.85
2023-09-16T03:29:47.194Z,5.66
2023-09-16T03:32:13.643Z,5.55
2023-09-16T03:34:40.083Z,5.06
2023-09-16T03:37:06.546Z,4.98
2023-09-16T03:39:33.071Z,5.04
2023-09-16T03:41:59.571Z,5.28
2023-09-16T03:44:26.021Z,4.96
2023-09-16T03:46:52.674Z,5.25
2023-09-16T03:49:19.169Z,4.85
2023-09-16T03:51:45.691Z,5.03
2023-09-16T03:54:12.128Z,5.33
2023-09-16T03:56:38.592Z,4.93
2023-09-16T03:59:05.186Z,4.98
2023-09-16T04:01:31.679Z,5.50
2023-09-16T04:03:58.233Z,5.36
2023-09-16T04:06:24.734Z,4.83
2023-09-16T04:08:51.220Z,4.72
2023-09-16T04:11:17.783Z,4.48
2023-09-16T04:13:44.222Z,5.06
2023-09-16T04:16:10.770Z,5.66
2023-09-16T04:18:37.415Z,5.93
2023-09-16T04:21:04.211Z,6.31
2023-09-16T04:23:31.046Z,5.79
2023-09-16T04:25:57.751Z,5.93
2023-09-16T04:28:24.364Z,5.83
2023-09-16T04:30:50.933Z,6.11
2023-09-16T04:33:17.420Z,6.95
2023-09-16T04:35:43.945Z,6.78
2023-09-16T04:38:10.418Z,6.20
2023-09-16T04:40:36.896Z,6.69
2023-09-16T04:43:03.345Z,6.55
2023-09-16T04:45:29.810Z,5.90
2023-09-16T04:47:56.317Z,6.22
2023-09-16T04:50:22.828Z,6.31
2023-09-16T04:52:49.413Z,5.77
2023-09-16T04:55:15.958Z,5.91
2023-09-16T04:57:42.580Z,5.84
2023-09-16T05:00:09.134Z,6.81
2023-09-16T05:02:35.591Z,5.85
2023-09-16T05:05:02.084Z,5.89
2023-09-16T05:07:28.530Z,5.78
2023-09-16T05:09:55.162Z,6.27
2023-09-16T05:12:21.619Z,6.26
2023-09-16T05:14:48.059Z,5.92
2023-09-16T05:17:14.560Z,5.57
2023-09-16T05:19:41.005Z,5.59
2023-09-16T05:22:07.539Z,6.22
2023-09-16T05:24:34.165Z,5.73
2023-09-16T05:27:00.632Z,5.78
2023-09-16T05:29:27.070Z,5.81
2023-09-16T05:31:53.542Z,5.98
2023-09-16T05:34:20.019Z,5.64
2023-09-16T05:36:46.569Z,5.98
2023-09-16T05:39:13.167Z,5.97
2023-09-16T05:41:39.829Z,6.23
2023-09-16T05:44:06.272Z,5.95
2023-09-16T05:46:32.908Z,6.16
2023-09-16T05:48:59.536Z,6.22
2023-09-16T05:51:26.017Z,6.30
2023-09-16T05:53:52.447Z,6.52
2023-09-16T05:56:18.898Z,6.79
2023-09-16T05:58:45.346Z,6.74
2023-09-16T06:01:11.940Z,6.42
2023-09-16T06:03:38.556Z,6.40
2023-09-16T06:06:05.073Z,6.55
2023-09-16T06:08:31.574Z,6.37
2023-09-16T06:10:58.110Z,6.20
2023-09-16T06:13:24.758Z,6.56
2023-09-16T06:15:51.354Z,6.50
2023-09-16T06:18:17.857Z,8.42
2023-09-16T06:20:44.393Z,6.87
2023-09-16T06:23:10.929Z,6.65
2023-09-16T06:25:37.401Z,6.70
2023-09-16T06:28:03.991Z,6.93
2023-09-16T06:30:30.547Z,6.90
2023-09-16T06:32:57.155Z,6.75
2023-09-16T06:35:23.584Z,7.12
2023-09-16T06:37:50.120Z,7.38
2023-09-16T06:40:16.621Z,7.71
2023-09-16T06:42:43.222Z,7.31
2023-09-16T06:45:09.665Z,7.12
2023-09-16T06:47:36.238Z,7.67
2023-09-16T06:50:02.732Z,7.70
2023-09-16T06:52:29.223Z,8.04
2023-09-16T06:54:55.730Z,7.93
2023-09-16T06:57:22.177Z,7.88
2023-09-16T06:59:48.665Z,8.53
2023-09-16T07:02:15.141Z,7.97
2023-09-16T07:04:41.712Z,7.67
2023-09-16T07:07:08.248Z,7.80
2023-09-16T07:09:34.774Z,8.14
2023-09-16T07:12:01.213Z,7.93
2023-09-16T07:14:27.842Z,7.59
2023-09-16T07:16:54.343Z,8.16
2023-09-16T07:19:20.983Z,7.97
2023-09-16T07:21:47.573Z,8.33
2023-09-16T07:24:14.125Z,7.82
2023-09-16T07:26:40.567Z,7.20
2023-09-16T07:29:07.070Z,6.73
2023-09-16T07:31:33.565Z,6.95
2023-09-16T07:34:00.121Z,6.73
2023-09-16T07:36:26.647Z,6.55
2023-09-16T07:38:53.196Z,6.63
2023-09-16T07:41:19.723Z,6.39
2023-09-16T07:43:46.250Z,6.70
2023-09-16T07:46:12.817Z,6.65
2023-09-16T07:48:39.609Z,7.56
2023-09-16T07:51:06.091Z,6.98
2023-09-16T07:53:32.599Z,7.66
2023-09-16T07:55:59.056Z,6.80
2023-09-16T07:58:25.535Z,6.89
2023-09-16T08:00:52.133Z,6.95
2023-09-16T08:03:18.844Z,6.72
2023-09-16T08:05:45.477Z,6.89
2023-09-16T08:08:12.089Z,7.07
2023-09-16T08:10:38.613Z,6.88
2023-09-16T08:13:05.176Z,7.17
2023-09-16T08:15:31.688Z,6.53
2023-09-16T08:17:58.180Z,6.69
2023-09-16T08:20:24.626Z,6.81
2023-09-16T08:22:51.099Z,6.54
2023-09-16T08:25:17.577Z,7.05
2023-09-16T08:27:44.409Z,7.23
2023-09-16T08:30:10.908Z,7.56
2023-09-16T08:32:37.531Z,7.33
2023-09-16T08:35:04.015Z,7.13
2023-09-16T08:37:30.658Z,8.05
2023-09-16T08:39:57.135Z,8.47
2023-09-16T08:42:23.668Z,7.37
2023-09-16T08:44:50.396Z,7.11
2023-09-16T08:47:17.054Z,7.03
2023-09-16T08:49:43.716Z,7.11
2023-09-16T08:52:10.291Z,6.99
2023-09-16T08:54:36.727Z,7.01
2023-09-16T08:57:03.286Z,7.06
2023-09-16T08:59:29.705Z,7.53
2023-09-16T09:01:56.426Z,7.62
2023-09-16T09:04:23.034Z,6.99
2023-09-16T09:06:49.543Z,7.38
2023-09-16T09:09:16.148Z,7.21
2023-09-16T09:11:43.071Z,8.18
2023-09-16T09:14:10.347Z,7.74
2023-09-16T09:16:36.867Z,7.99
2023-09-16T09:19:03.470Z,7.75
2023-09-16T09:21:29.980Z,7.42
2023-09-16T09:23:56.442Z,7.33
2023-09-16T09:26:23.018Z,7.45
2023-09-16T09:28:49.772Z,7.35
2023-09-16T09:31:16.741Z,8.01
2023-09-16T09:33:43.515Z,7.37
2023-09-16T09:36:10.279Z,7.98
2023-09-16T09:38:36.764Z,7.76
2023-09-16T09:41:03.232Z,7.56
2023-09-16T09:43:29.691Z,6.59
2023-09-16T09:45:56.223Z,6.44
2023-09-16T09:48:22.792Z,7.54
2023-09-16T09:50:49.217Z,7.67
2023-09-16T09:53:15.662Z,7.65
2023-09-16T09:55:42.126Z,6.06
2023-09-16T09:58:08.613Z,6.82
2023-09-16T10:00:35.055Z,6.98
2023-09-16T10:03:01.654Z,7.12
2023-09-16T10:05:28.237Z,6.88
2023-09-16T10:07:54.819Z,7.20
2023-09-16T10:10:21.492Z,7.14
2023-09-16T10:12:48.159Z,7.94
2023-09-16T10:15:14.651Z,8.47
2023-09-16T10:17:41.301Z,7.21
2023-09-16T10:20:07.750Z,7.16
2023-09-16T10:22:34.216Z,7.08
2023-09-16T10:25:00.727Z,7.01
2023-09-16T10:27:27.278Z,7.13
2023-09-16T10:29:53.743Z,6.77
2023-09-16T10:32:20.781Z,6.29
2023-09-16T10:34:47.485Z,6.50
2023-09-16T10:37:14.051Z,6.50
2023-09-16T10:39:40.656Z,6.76
2023-09-16T10:42:07.116Z,6.51
2023-09-16T10:44:33.642Z,6.96
2023-09-16T10:47:00.280Z,6.95
2023-09-16T10:49:26.984Z,7.15
2023-09-16T10:51:53.546Z,6.91
2023-09-16T10:54:20.231Z,7.28
2023-09-16T10:56:46.872Z,6.83
2023-09-16T10:59:13.365Z,7.27
2023-09-16T11:01:39.893Z,7.36
2023-09-16T11:04:06.492Z,7.15
2023-09-16T11:06:32.930Z,7.46
2023-09-16T11:08:59.373Z,6.94
2023-09-16T11:11:25.888Z,6.73
2023-09-16T11:13:52.547Z,7.38
2023-09-16T11:16:19.203Z,7.48
2023-09-16T11:18:45.736Z,6.86
2023-09-16T11:21:14.217Z,6.58
2023-09-16T11:23:40.776Z,6.27
2023-09-16T11:26:07.257Z,5.13
2023-09-16T11:28:34.008Z,5.48
2023-09-16T11:31:00.545Z,5.98
2023-09-16T11:33:27.155Z,6.36
2023-09-16T11:35:53.716Z,6.86
2023-09-16T11:38:20.243Z,6.26
2023-09-16T11:40:46.798Z,5.62
2023-09-16T11:43:13.386Z,5.39
2023-09-16T11:45:39.969Z,5.40
2023-09-16T11:48:06.534Z,5.67
2023-09-16T11:50:33.033Z,5.61
2023-09-16T11:52:59.644Z,6.63
2023-09-16T11:55:26.141Z,6.30
2023-09-16T11:57:52.606Z,5.83
2023-09-16T12:00:19.105Z,6.24
2023-09-16T12:02:45.791Z,6.26
2023-09-16T12:05:12.325Z,5.56
2023-09-16T12:07:38.771Z,6.15
2023-09-16T12:10:05.514Z,5.42
2023-09-16T12:12:32.047Z,5.47
2023-09-16T12:14:58.567Z,5.83
2023-09-16T12:17:25.085Z,4.70
2023-09-16T12:19:51.658Z,5.27
2023-09-16T12:22:18.324Z,4.23
2023-09-16T12:24:44.954Z,4.82
2023-09-16T12:27:11.508Z,5.64
2023-09-16T12:29:38.084Z,5.54
2023-09-16T12:32:04.639Z,4.99
2023-09-16T12:34:31.167Z,5.41
2023-09-16T12:36:57.769Z,5.31
2023-09-16T12:39:24.323Z,5.17
2023-09-16T12:42:04.711Z,4.43
2023-09-16T12:44:37.703Z,4.61
2023-09-16T12:47:04.280Z,4.49
2023-09-16T12:49:30.902Z,4.56
2023-09-16T12:51:57.610Z,4.63
2023-09-16T12:54:24.164Z,4.47
2023-09-16T12:56:50.656Z,4.98
2023-09-16T12:59:17.169Z,4.29
2023-09-16T13:01:43.836Z,4.23
2023-09-16T13:04:10.374Z,3.86
2023-09-16T13:06:36.858Z,3.92
2023-09-16T13:09:03.380Z,4.40
2023-09-16T13:11:30.025Z,4.27
2023-09-16T13:13:56.593Z,3.97
2023-09-16T13:16:23.360Z,4.26
2023-09-16T13:18:50.011Z,4.84
2023-09-16T13:21:16.812Z,4.80
2023-09-16T13:23:43.336Z,4.20
2023-09-16T13:26:10.051Z,3.82
2023-09-16T13:28:36.556Z,3.71
2023-09-16T13:31:03.055Z,4.02
2023-09-16T13:33:29.589Z,3.45
2023-09-16T13:35:56.081Z,3.53
2023-09-16T13:38:22.644Z,3.87
2023-09-16T13:40:49.255Z,4.02
2023-09-16T13:43:15.819Z,4.05
2023-09-16T13:45:42.367Z,4.00
2023-09-16T13:48:08.829Z,3.36
2023-09-16T13:50:35.329Z,3.48
2023-09-16T13:53:01.824Z,3.60
2023-09-16T13:55:29.626Z,3.28
2023-09-16T13:57:58.127Z,3.62
2023-09-16T14:00:24.641Z,3.48
2023-09-16T14:02:51.276Z,3.77
2023-09-16T14:05:17.859Z,3.71
2023-09-16T14:07:44.385Z,4.07
2023-09-16T14:10:10.950Z,3.51
2023-09-16T14:12:38.590Z,3.45
2023-09-16T14:15:05.178Z,3.01
2023-09-16T14:17:31.724Z,3.13
2023-09-16T14:19:58.299Z,3.31
2023-09-16T14:22:24.822Z,3.16
2023-09-16T14:24:51.374Z,3.64
2023-09-16T14:27:17.825Z,3.27
2023-09-16T14:29:44.281Z,2.98
2023-09-16T14:32:10.761Z,3.52
2023-09-16T14:34:37.374Z,2.99
2023-09-16T14:37:03.983Z,3.15
2023-09-16T14:39:30.450Z,3.08
2023-09-16T14:41:56.898Z,3.58
2023-09-16T14:44:23.367Z,3.48
2023-09-16T14:46:49.921Z,3.77
2023-09-16T14:49:16.630Z,3.19
2023-09-16T14:51:43.128Z,3.20
2023-09-16T14:54:09.692Z,3.05
2023-09-16T14:56:36.120Z,3.17
2023-09-16T14:59:02.563Z,3.20
2023-09-16T15:01:29.236Z,3.69
2023-09-16T15:03:55.820Z,3.34
2023-09-16T15:06:22.352Z,2.87
2023-09-16T15:08:49.295Z,3.10
2023-09-16T15:11:16.133Z,3.66
2023-09-16T15:13:42.629Z,3.36
2023-09-16T15:16:09.179Z,3.46
2023-09-16T15:18:35.826Z,3.32
2023-09-16T15:21:02.436Z,3.13
2023-09-16T15:23:29.028Z,3.21
2023-09-16T15:25:55.597Z,2.93
2023-09-16T15:28:22.073Z,2.95
2023-09-16T15:30:48.761Z,2.98
2023-09-16T15:33:15.271Z,3.04
2023-09-16T15:35:41.744Z,2.98
2023-09-16T15:38:08.233Z,3.00
2023-09-16T15:40:34.746Z,2.85
2023-09-16T15:43:01.320Z,3.05
2023-09-16T15:45:27.826Z,3.16
2023-09-16T15:47:54.366Z,3.87
2023-09-16T15:50:20.993Z,3.84
2023-09-16T15:52:47.604Z,3.66
2023-09-16T15:55:14.083Z,3.65
2023-09-16T15:57:40.765Z,3.53
2023-09-16T16:00:07.261Z,3.80
2023-09-16T16:02:33.815Z,3.71
2023-09-16T16:05:00.372Z,4.02
2023-09-16T16:07:26.831Z,4.39
2023-09-16T16:09:53.372Z,4.14
2023-09-16T16:12:20.078Z,4.29
2023-09-16T16:14:46.545Z,3.84
2023-09-16T16:17:23.227Z,3.81
2023-09-16T16:19:50.703Z,4.00
2023-09-16T16:22:17.290Z,6.00
2023-09-16T16:24:43.769Z,6.58
2023-09-16T16:27:10.365Z,5.15
2023-09-16T16:29:36.837Z,6.88
2023-09-16T16:32:03.356Z,3.92
2023-09-16T16:34:29.944Z,4.00
2023-09-16T16:36:56.479Z,3.81
2023-09-16T16:39:22.969Z,3.93
2023-09-16T16:41:52.395Z,3.62
2023-09-16T16:44:18.949Z,4.09
2023-09-16T16:46:48.286Z,4.26
2023-09-16T16:49:16.206Z,3.97
2023-09-16T16:51:42.664Z,3.84
2023-09-16T16:54:11.196Z,3.68
2023-09-16T16:56:37.688Z,3.93
2023-09-16T16:59:04.272Z,3.92
2023-09-16T17:01:30.927Z,4.68
2023-09-16T17:03:57.485Z,5.35
2023-09-16T17:06:24.125Z,4.54
2023-09-16T17:08:50.724Z,4.12
2023-09-16T17:11:17.177Z,3.85
2023-09-16T17:13:43.620Z,3.93
2023-09-16T17:16:10.244Z,3.96
2023-09-16T17:18:36.884Z,4.48
2023-09-16T17:21:03.342Z,3.80
2023-09-16T17:23:29.838Z,3.88
2023-09-16T17:25:56.455Z,4.56
2023-09-16T17:28:23.010Z,4.72
2023-09-16T17:30:49.496Z,5.81
2023-09-16T17:33:15.966Z,6.10
2023-09-16T17:35:42.445Z,4.99
2023-09-16T17:38:09.047Z,4.69
2023-09-16T17:40:35.568Z,4.57
2023-09-16T17:43:02.062Z,4.52
2023-09-16T17:45:28.547Z,4.74
2023-09-16T17:47:55.063Z,4.45
2023-09-16T17:50:21.624Z,5.11
2023-09-16T17:52:48.245Z,4.99
2023-09-16T17:55:14.751Z,4.48
2023-09-16T17:57:41.246Z,4.76
2023-09-16T18:00:07.854Z,5.18
2023-09-16T18:02:34.326Z,5.21
2023-09-16T18:05:00.809Z,4.83
2023-09-16T18:07:27.357Z,4.72
2023-09-16T18:09:53.881Z,4.38
2023-09-16T18:12:20.413Z,4.76
2023-09-16T18:14:46.955Z,5.19
2023-09-16T18:17:13.453Z,5.02
2023-09-16T18:19:40.048Z,5.71
2023-09-16T18:22:06.746Z,5.51
2023-09-16T18:24:33.233Z,5.78
2023-09-16T18:26:59.691Z,5.14
2023-09-16T18:29:26.197Z,4.98
2023-09-16T18:31:52.750Z,4.88
2023-09-16T18:34:19.379Z,4.75
2023-09-16T18:36:45.956Z,5.22
2023-09-16T18:39:12.531Z,5.49
2023-09-16T18:41:39.023Z,5.49
2023-09-16T18:44:05.686Z,5.49
2023-09-16T18:46:32.270Z,5.41
2023-09-16T18:48:59.078Z,4.93
2023-09-16T18:51:25.793Z,5.88
2023-09-16T18:53:52.510Z,5.61
2023-09-16T18:56:19.282Z,6.04
2023-09-16T18:58:45.742Z,6.50
2023-09-16T19:01:12.349Z,6.65
2023-09-16T19:03:38.982Z,6.36
2023-09-16T19:06:05.456Z,5.70
2023-09-16T19:08:31.902Z,5.30
2023-09-16T19:10:58.343Z,5.34
2023-09-16T19:13:24.810Z,5.67
2023-09-16T19:15:51.415Z,6.01
2023-09-16T19:18:17.919Z,5.79
2023-09-16T19:20:44.397Z,5.70
2023-09-16T19:23:10.859Z,5.77
2023-09-16T19:25:37.450Z,5.49
2023-09-16T19:28:04.045Z,5.62
2023-09-16T19:30:30.537Z,5.57
2023-09-16T19:32:57.834Z,5.88
2023-09-16T19:35:24.641Z,5.56
2023-09-16T19:37:51.087Z,5.59
2023-09-16T19:40:17.836Z,5.58
2023-09-16T19:42:44.306Z,6.33
2023-09-16T19:45:10.786Z,6.18
2023-09-16T19:47:37.467Z,6.36
2023-09-16T19:50:04.190Z,6.97
2023-09-16T19:52:30.689Z,6.64
2023-09-16T19:54:57.300Z,6.57
2023-09-16T19:57:23.765Z,6.74
2023-09-16T19:59:50.223Z,6.30
2023-09-16T20:02:16.810Z,6.18
2023-09-16T20:04:43.354Z,6.19
2023-09-16T20:07:09.876Z,6.24
2023-09-16T20:09:36.534Z,6.30
2023-09-16T20:12:03.043Z,6.18
2023-09-16T20:14:29.572Z,6.64
2023-09-16T20:16:56.158Z,7.07
2023-09-16T20:19:22.849Z,7.88
2023-09-16T20:21:49.365Z,7.29
2023-09-16T20:24:15.856Z,7.20
2023-09-16T20:26:42.340Z,7.26
2023-09-16T20:29:08.818Z,7.57
2023-09-16T20:31:35.401Z,7.36
2023-09-16T20:34:11.638Z,7.76
2023-09-16T20:36:38.650Z,7.74
2023-09-16T20:39:05.084Z,7.26
2023-09-16T20:41:31.562Z,8.18
2023-09-16T20:43:58.184Z,7.89
2023-09-16T20:46:24.683Z,8.28
2023-09-16T20:48:51.168Z,7.41
2023-09-16T20:51:17.638Z,7.49
2023-09-16T20:53:44.078Z,8.03
2023-09-16T20:56:10.600Z,7.24
2023-09-16T20:58:37.186Z,7.01
2023-09-16T21:01:03.687Z,7.44
2023-09-16T21:03:30.265Z,8.30
2023-09-16T21:05:56.802Z,8.14
2023-09-16T21:08:23.309Z,8.84
2023-09-16T21:10:50.062Z,8.63
2023-09-16T21:13:16.563Z,8.31
2023-09-16T21:15:43.273Z,7.46
2023-09-16T21:18:09.843Z,7.00
2023-09-16T21:20:36.292Z,7.50
2023-09-16T21:23:03.193Z,6.89
2023-09-16T21:25:29.746Z,6.35
2023-09-16T21:27:56.370Z,6.43
2023-09-16T21:30:22.874Z,7.02
2023-09-16T21:32:49.590Z,6.53
2023-09-16T21:35:16.151Z,6.52
2023-09-16T21:37:42.617Z,6.47
2023-09-16T21:40:09.238Z,6.38
2023-09-16T21:42:35.910Z,6.48
2023-09-16T21:45:02.408Z,6.78
2023-09-16T21:47:28.885Z,6.52
2023-09-16T21:49:55.400Z,6.75
2023-09-16T21:52:21.886Z,11.44
2023-09-16T21:54:48.443Z,18.10
2023-09-16T21:57:14.926Z,12.69
2023-09-16T21:59:41.426Z,8.36
2023-09-16T22:02:07.967Z,7.77
2023-09-16T22:04:34.623Z,7.81
2023-09-16T22:07:01.438Z,7.06
2023-09-16T22:09:28.034Z,7.04
2023-09-16T22:11:54.512Z,7.72
2023-09-16T22:14:20.967Z,7.72
2023-09-16T22:16:47.514Z,7.62
2023-09-16T22:19:16.953Z,6.98
2023-09-16T22:21:43.463Z,7.48
2023-09-16T22:24:09.936Z,7.72
2023-09-16T22:26:36.434Z,8.16
2023-09-16T22:29:02.896Z,8.22
2023-09-16T22:31:29.404Z,7.88
2023-09-16T22:33:55.917Z,7.86
2023-09-16T22:36:22.365Z,8.71
2023-09-16T22:38:49.195Z,8.56
2023-09-16T22:41:16.036Z,7.75
2023-09-16T22:43:42.630Z,16.87
2023-09-16T22:46:09.115Z,8.62
2023-09-16T22:48:35.610Z,8.03
2023-09-16T22:51:02.043Z,8.40
2023-09-16T22:53:28.514Z,7.58
2023-09-16T22:55:54.981Z,6.88
2023-09-16T22:58:21.481Z,7.26
2023-09-16T23:00:48.164Z,6.89
2023-09-16T23:03:14.726Z,6.90
2023-09-16T23:05:41.293Z,5.92
2023-09-16T23:08:07.753Z,6.25
2023-09-16T23:10:34.377Z,8.30
2023-09-16T23:13:00.933Z,7.29
2023-09-16T23:15:27.475Z,6.57
2023-09-16T23:17:53.967Z,6.28
2023-09-16T23:20:20.451Z,5.93
2023-09-16T23:22:46.956Z,6.26
2023-09-16T23:25:13.463Z,6.10
2023-09-16T23:27:39.982Z,6.21
2023-09-16T23:30:06.557Z,6.49
2023-09-16T23:32:33.126Z,7.20
2023-09-16T23:34:59.664Z,7.40
2023-09-16T23:37:26.160Z,8.10
2023-09-16T23:39:52.597Z,8.76
2023-09-16T23:42:19.114Z,8.51
2023-09-16T23:44:45.681Z,9.04
2023-09-16T23:47:12.314Z,8.75
2023-09-16T23:49:38.965Z,8.31
2023-09-16T23:52:05.560Z,8.50
2023-09-16T23:54:31.989Z,8.89
2023-09-16T23:56:58.438Z,9.04
2023-09-16T23:59:24.912Z,8.34
